sensor_id;sensor_type;location;lat;lon;timestamp;pressure;altitude;pressure_sealevel;temperature;humidity
63306;BME280;50735;52.060;1.248;2023-07-08T00:00:59;101241.52;;;20.13;44.90
63306;BME280;50735;52.060;1.248;2023-07-08T00:03:31;101241.11;;;19.90;44.37
63306;BME280;50735;52.060;1.248;2023-07-08T00:06:03;101238.23;;;19.93;44.37
63306;BME280;50735;52.060;1.248;2023-07-08T00:08:34;101236.99;;;20.17;45.24
63306;BME280;50735;52.060;1.248;2023-07-08T00:11:09;101236.09;;;20.42;45.08
63306;BME280;50735;52.060;1.248;2023-07-08T00:13:41;101233.36;;;20.00;45.47
63306;BME280;50735;52.060;1.248;2023-07-08T00:16:14;101228.42;;;19.91;45.53
63306;BME280;50735;52.060;1.248;2023-07-08T00:18:46;101226.65;;;19.81;45.91
63306;BME280;50735;52.060;1.248;2023-07-08T00:21:18;101220.40;;;19.98;45.16
63306;BME280;50735;52.060;1.248;2023-07-08T00:23:51;101222.74;;;19.81;45.77
63306;BME280;50735;52.060;1.248;2023-07-08T00:26:25;101225.06;;;19.74;45.72
63306;BME280;50735;52.060;1.248;2023-07-08T00:28:57;101224.23;;;19.65;45.94
63306;BME280;50735;52.060;1.248;2023-07-08T00:31:29;101221.47;;;19.66;46.02
63306;BME280;50735;52.060;1.248;2023-07-08T00:34:00;101223.56;;;19.75;45.84
63306;BME280;50735;52.060;1.248;2023-07-08T00:36:33;101222.47;;;19.74;45.56
63306;BME280;50735;52.060;1.248;2023-07-08T00:39:13;101225.17;;;19.96;45.78
63306;BME280;50735;52.060;1.248;2023-07-08T00:41:45;101220.15;;;19.77;45.66
63306;BME280;50735;52.060;1.248;2023-07-08T00:44:19;101219.37;;;19.60;45.28
63306;BME280;50735;52.060;1.248;2023-07-08T00:46:57;101215.34;;;19.99;45.32
63306;BME280;50735;52.060;1.248;2023-07-08T00:49:37;101214.24;;;19.77;45.23
63306;BME280;50735;52.060;1.248;2023-07-08T00:52:21;101216.77;;;19.55;45.60
63306;BME280;50735;52.060;1.248;2023-07-08T00:54:55;101213.99;;;19.56;45.96
63306;BME280;50735;52.060;1.248;2023-07-08T00:57:30;101212.57;;;19.71;45.53
63306;BME280;50735;52.060;1.248;2023-07-08T01:00:05;101208.54;;;19.91;45.24
63306;BME280;50735;52.060;1.248;2023-07-08T01:02:41;101212.09;;;19.92;45.80
63306;BME280;50735;52.060;1.248;2023-07-08T01:05:17;101213.30;;;19.83;45.84
63306;BME280;50735;52.060;1.248;2023-07-08T01:07:56;101216.41;;;19.82;45.45
63306;BME280;50735;52.060;1.248;2023-07-08T01:10:34;101216.28;;;19.42;45.41
63306;BME280;50735;52.060;1.248;2023-07-08T01:13:09;101214.63;;;19.74;46.28
63306;BME280;50735;52.060;1.248;2023-07-08T01:15:45;101213.78;;;19.63;46.11
63306;BME280;50735;52.060;1.248;2023-07-08T01:18:20;101210.26;;;19.20;46.45
63306;BME280;50735;52.060;1.248;2023-07-08T01:20:53;101209.66;;;19.56;46.21
63306;BME280;50735;52.060;1.248;2023-07-08T01:23:25;101206.25;;;19.27;46.17
63306;BME280;50735;52.060;1.248;2023-07-08T01:25:57;101202.61;;;19.25;46.89
63306;BME280;50735;52.060;1.248;2023-07-08T01:28:31;101201.80;;;19.41;46.39
63306;BME280;50735;52.060;1.248;2023-07-08T01:31:03;101201.44;;;19.31;46.65
63306;BME280;50735;52.060;1.248;2023-07-08T01:33:35;101200.97;;;18.97;46.78
63306;BME280;50735;52.060;1.248;2023-07-08T01:36:08;101197.06;;;19.30;46.86
63306;BME280;50735;52.060;1.248;2023-07-08T01:38:41;101198.11;;;19.21;46.77
63306;BME280;50735;52.060;1.248;2023-07-08T01:41:14;101199.25;;;19.17;46.56
63306;BME280;50735;52.060;1.248;2023-07-08T01:43:47;101196.49;;;19.25;46.77
63306;BME280;50735;52.060;1.248;2023-07-08T01:46:22;101192.65;;;19.24;46.46
63306;BME280;50735;52.060;1.248;2023-07-08T01:48:57;101191.08;;;19.25;46.56
63306;BME280;50735;52.060;1.248;2023-07-08T01:51:30;101188.08;;;18.98;46.51
63306;BME280;50735;52.060;1.248;2023-07-08T01:54:03;101189.97;;;19.20;46.12
63306;BME280;50735;52.060;1.248;2023-07-08T01:56:34;101190.21;;;19.25;46.33
63306;BME280;50735;52.060;1.248;2023-07-08T01:59:06;101185.73;;;19.25;46.56
63306;BME280;50735;52.060;1.248;2023-07-08T02:01:38;101188.10;;;19.17;46.23
63306;BME280;50735;52.060;1.248;2023-07-08T02:04:10;101185.25;;;19.23;46.06
63306;BME280;50735;52.060;1.248;2023-07-08T02:06:42;101185.22;;;19.24;46.21
63306;BME280;50735;52.060;1.248;2023-07-08T02:09:14;101179.58;;;19.52;45.77
63306;BME280;50735;52.060;1.248;2023-07-08T02:11:46;101176.96;;;19.34;45.54
63306;BME280;50735;52.060;1.248;2023-07-08T02:14:18;101179.23;;;19.39;45.52
63306;BME280;50735;52.060;1.248;2023-07-08T02:16:49;101177.54;;;19.21;45.21
63306;BME280;50735;52.060;1.248;2023-07-08T02:19:21;101175.23;;;19.45;45.61
63306;BME280;50735;52.060;1.248;2023-07-08T02:21:53;101170.32;;;19.39;45.45
63306;BME280;50735;52.060;1.248;2023-07-08T02:24:24;101168.08;;;19.37;45.09
63306;BME280;50735;52.060;1.248;2023-07-08T02:26:56;101168.84;;;19.39;45.21
63306;BME280;50735;52.060;1.248;2023-07-08T02:29:28;101165.60;;;19.36;45.04
63306;BME280;50735;52.060;1.248;2023-07-08T02:31:59;101164.91;;;19.38;45.35
63306;BME280;50735;52.060;1.248;2023-07-08T02:34:31;101161.39;;;19.57;45.02
63306;BME280;50735;52.060;1.248;2023-07-08T02:37:03;101161.50;;;19.34;45.24
63306;BME280;50735;52.060;1.248;2023-07-08T02:39:35;101163.84;;;19.13;45.33
63306;BME280;50735;52.060;1.248;2023-07-08T02:42:07;101162.15;;;19.26;45.17
63306;BME280;50735;52.060;1.248;2023-07-08T02:44:38;101162.32;;;19.25;45.42
63306;BME280;50735;52.060;1.248;2023-07-08T02:47:10;101161.02;;;19.19;45.02
63306;BME280;50735;52.060;1.248;2023-07-08T02:49:42;101156.73;;;19.22;44.93
63306;BME280;50735;52.060;1.248;2023-07-08T02:52:13;101152.61;;;19.20;45.50
63306;BME280;50735;52.060;1.248;2023-07-08T02:54:45;101150.22;;;19.25;45.60
63306;BME280;50735;52.060;1.248;2023-07-08T02:57:16;101151.56;;;18.86;45.57
63306;BME280;50735;52.060;1.248;2023-07-08T02:59:48;101154.69;;;18.88;45.33
63306;BME280;50735;52.060;1.248;2023-07-08T03:02:21;101161.36;;;19.00;45.25
63306;BME280;50735;52.060;1.248;2023-07-08T03:04:53;101165.87;;;19.28;45.13
63306;BME280;50735;52.060;1.248;2023-07-08T03:07:24;101166.03;;;19.33;44.81
63306;BME280;50735;52.060;1.248;2023-07-08T03:09:56;101166.85;;;19.12;45.00
63306;BME280;50735;52.060;1.248;2023-07-08T03:12:28;101165.74;;;18.98;45.62
63306;BME280;50735;52.060;1.248;2023-07-08T03:14:59;101162.35;;;18.89;45.72
63306;BME280;50735;52.060;1.248;2023-07-08T03:17:31;101165.08;;;18.90;45.54
63306;BME280;50735;52.060;1.248;2023-07-08T03:20:03;101163.36;;;18.83;46.07
63306;BME280;50735;52.060;1.248;2023-07-08T03:22:35;101162.33;;;18.76;46.26
63306;BME280;50735;52.060;1.248;2023-07-08T03:25:09;101163.61;;;18.88;46.45
63306;BME280;50735;52.060;1.248;2023-07-08T03:27:41;101166.07;;;18.98;46.44
63306;BME280;50735;52.060;1.248;2023-07-08T03:30:13;101167.64;;;18.85;45.99
63306;BME280;50735;52.060;1.248;2023-07-08T03:32:44;101164.47;;;18.66;46.83
63306;BME280;50735;52.060;1.248;2023-07-08T03:35:16;101165.51;;;18.86;46.28
63306;BME280;50735;52.060;1.248;2023-07-08T03:37:48;101165.95;;;18.93;46.45
63306;BME280;50735;52.060;1.248;2023-07-08T03:40:20;101160.38;;;18.92;46.51
63306;BME280;50735;52.060;1.248;2023-07-08T03:42:52;101159.24;;;18.90;46.45
63306;BME280;50735;52.060;1.248;2023-07-08T03:45:26;101159.28;;;18.77;47.01
63306;BME280;50735;52.060;1.248;2023-07-08T03:47:57;101160.44;;;18.99;46.65
63306;BME280;50735;52.060;1.248;2023-07-08T03:50:29;101157.78;;;19.03;46.39
63306;BME280;50735;52.060;1.248;2023-07-08T03:53:01;101157.83;;;19.08;46.94
63306;BME280;50735;52.060;1.248;2023-07-08T03:55:34;101155.94;;;18.96;46.93
63306;BME280;50735;52.060;1.248;2023-07-08T03:58:06;101160.74;;;18.84;47.32
63306;BME280;50735;52.060;1.248;2023-07-08T04:00:37;101161.70;;;18.75;47.29
63306;BME280;50735;52.060;1.248;2023-07-08T04:03:11;101160.34;;;18.81;47.14
63306;BME280;50735;52.060;1.248;2023-07-08T04:05:42;101160.76;;;18.96;46.78
63306;BME280;50735;52.060;1.248;2023-07-08T04:08:14;101158.97;;;19.07;46.33
63306;BME280;50735;52.060;1.248;2023-07-08T04:10:46;101156.65;;;19.08;46.67
63306;BME280;50735;52.060;1.248;2023-07-08T04:13:18;101157.05;;;19.10;46.81
63306;BME280;50735;52.060;1.248;2023-07-08T04:15:53;101156.07;;;19.08;46.48
63306;BME280;50735;52.060;1.248;2023-07-08T04:18:26;101156.51;;;19.12;46.54
63306;BME280;50735;52.060;1.248;2023-07-08T04:20:58;101157.32;;;19.17;46.28
63306;BME280;50735;52.060;1.248;2023-07-08T04:23:30;101154.43;;;19.25;46.25
63306;BME280;50735;52.060;1.248;2023-07-08T04:26:02;101155.53;;;19.21;46.28
63306;BME280;50735;52.060;1.248;2023-07-08T04:28:34;101159.69;;;19.29;45.96
63306;BME280;50735;52.060;1.248;2023-07-08T04:31:06;101162.68;;;19.28;46.23
63306;BME280;50735;52.060;1.248;2023-07-08T04:33:37;101162.32;;;19.35;45.81
63306;BME280;50735;52.060;1.248;2023-07-08T04:36:12;101160.76;;;19.41;46.08
63306;BME280;50735;52.060;1.248;2023-07-08T04:38:44;101158.89;;;19.41;45.89
63306;BME280;50735;52.060;1.248;2023-07-08T04:41:16;101162.51;;;19.44;45.67
63306;BME280;50735;52.060;1.248;2023-07-08T04:43:48;101164.03;;;19.49;45.93
63306;BME280;50735;52.060;1.248;2023-07-08T04:46:27;101164.64;;;19.50;45.96
63306;BME280;50735;52.060;1.248;2023-07-08T04:49:02;101168.51;;;19.26;45.85
63306;BME280;50735;52.060;1.248;2023-07-08T04:51:35;101166.75;;;19.56;45.95
63306;BME280;50735;52.060;1.248;2023-07-08T04:54:07;101162.41;;;19.44;45.85
63306;BME280;50735;52.060;1.248;2023-07-08T04:56:40;101165.12;;;19.66;45.49
63306;BME280;50735;52.060;1.248;2023-07-08T04:59:14;101166.72;;;19.57;45.43
63306;BME280;50735;52.060;1.248;2023-07-08T05:01:46;101164.71;;;19.62;45.00
63306;BME280;50735;52.060;1.248;2023-07-08T05:04:19;101164.15;;;19.87;45.01
63306;BME280;50735;52.060;1.248;2023-07-08T05:06:52;101169.73;;;19.95;45.21
63306;BME280;50735;52.060;1.248;2023-07-08T05:09:23;101176.97;;;19.98;44.81
63306;BME280;50735;52.060;1.248;2023-07-08T05:11:55;101176.23;;;19.96;44.95
63306;BME280;50735;52.060;1.248;2023-07-08T05:14:27;101171.67;;;19.89;45.11
63306;BME280;50735;52.060;1.248;2023-07-08T05:16:59;101172.07;;;19.99;44.99
63306;BME280;50735;52.060;1.248;2023-07-08T05:19:31;101173.09;;;19.80;45.29
63306;BME280;50735;52.060;1.248;2023-07-08T05:22:03;101176.77;;;19.78;45.22
63306;BME280;50735;52.060;1.248;2023-07-08T05:24:34;101175.82;;;19.96;45.25
63306;BME280;50735;52.060;1.248;2023-07-08T05:27:06;101178.76;;;19.79;45.83
63306;BME280;50735;52.060;1.248;2023-07-08T05:29:39;101185.08;;;19.68;45.65
63306;BME280;50735;52.060;1.248;2023-07-08T05:32:10;101192.02;;;20.13;45.22
63306;BME280;50735;52.060;1.248;2023-07-08T05:34:42;101200.29;;;20.06;45.32
63306;BME280;50735;52.060;1.248;2023-07-08T05:37:14;101205.78;;;19.86;45.42
63306;BME280;50735;52.060;1.248;2023-07-08T05:39:45;101208.22;;;20.08;45.76
63306;BME280;50735;52.060;1.248;2023-07-08T05:42:18;101204.33;;;19.95;45.57
63306;BME280;50735;52.060;1.248;2023-07-08T05:44:49;101199.65;;;20.13;45.71
63306;BME280;50735;52.060;1.248;2023-07-08T05:47:22;101200.76;;;20.30;45.42
63306;BME280;50735;52.060;1.248;2023-07-08T05:49:54;101202.64;;;20.36;45.77
63306;BME280;50735;52.060;1.248;2023-07-08T05:52:25;101201.97;;;20.07;45.54
63306;BME280;50735;52.060;1.248;2023-07-08T05:54:57;101202.26;;;20.24;45.70
63306;BME280;50735;52.060;1.248;2023-07-08T05:57:28;101203.80;;;20.24;45.36
63306;BME280;50735;52.060;1.248;2023-07-08T06:00:00;101203.32;;;20.15;45.46
63306;BME280;50735;52.060;1.248;2023-07-08T06:02:32;101198.49;;;20.22;45.44
63306;BME280;50735;52.060;1.248;2023-07-08T06:05:04;101196.71;;;20.08;45.84
63306;BME280;50735;52.060;1.248;2023-07-08T06:07:36;101193.42;;;20.52;45.77
63306;BME280;50735;52.060;1.248;2023-07-08T06:10:08;101188.91;;;20.19;45.76
63306;BME280;50735;52.060;1.248;2023-07-08T06:12:41;101191.00;;;20.28;45.62
63306;BME280;50735;52.060;1.248;2023-07-08T06:15:13;101195.30;;;20.38;45.62
63306;BME280;50735;52.060;1.248;2023-07-08T06:17:45;101196.32;;;20.45;45.45
63306;BME280;50735;52.060;1.248;2023-07-08T06:20:17;101193.99;;;20.44;45.53
63306;BME280;50735;52.060;1.248;2023-07-08T06:22:48;101192.44;;;20.43;45.29
63306;BME280;50735;52.060;1.248;2023-07-08T06:25:21;101188.00;;;20.27;45.25
63306;BME280;50735;52.060;1.248;2023-07-08T06:27:52;101191.22;;;20.36;45.41
63306;BME280;50735;52.060;1.248;2023-07-08T06:30:24;101188.72;;;20.55;45.31
63306;BME280;50735;52.060;1.248;2023-07-08T06:32:56;101186.06;;;20.64;45.49
63306;BME280;50735;52.060;1.248;2023-07-08T06:35:28;101183.68;;;20.32;44.99
63306;BME280;50735;52.060;1.248;2023-07-08T06:37:59;101177.43;;;20.61;45.25
63306;BME280;50735;52.060;1.248;2023-07-08T06:40:32;101170.77;;;20.53;45.46
63306;BME280;50735;52.060;1.248;2023-07-08T06:43:04;101169.09;;;20.23;45.31
63306;BME280;50735;52.060;1.248;2023-07-08T06:45:36;101170.83;;;20.62;45.22
63306;BME280;50735;52.060;1.248;2023-07-08T06:48:08;101166.10;;;20.31;45.18
63306;BME280;50735;52.060;1.248;2023-07-08T06:50:42;101167.62;;;20.53;44.98
63306;BME280;50735;52.060;1.248;2023-07-08T06:53:14;101168.59;;;20.77;44.50
63306;BME280;50735;52.060;1.248;2023-07-08T06:55:46;101168.65;;;20.57;44.76
63306;BME280;50735;52.060;1.248;2023-07-08T06:58:18;101165.91;;;20.75;44.59
63306;BME280;50735;52.060;1.248;2023-07-08T07:00:50;101164.86;;;20.93;44.39
63306;BME280;50735;52.060;1.248;2023-07-08T07:03:23;101167.98;;;20.94;44.04
63306;BME280;50735;52.060;1.248;2023-07-08T07:05:55;101166.45;;;20.82;44.01
63306;BME280;50735;52.060;1.248;2023-07-08T07:08:26;101165.87;;;20.98;43.86
63306;BME280;50735;52.060;1.248;2023-07-08T07:10:58;101163.48;;;21.19;42.96
63306;BME280;50735;52.060;1.248;2023-07-08T07:13:30;101165.68;;;21.35;42.90
63306;BME280;50735;52.060;1.248;2023-07-08T07:16:03;101169.02;;;21.41;42.82
63306;BME280;50735;52.060;1.248;2023-07-08T07:18:35;101169.32;;;21.44;42.60
63306;BME280;50735;52.060;1.248;2023-07-08T07:21:06;101173.35;;;21.58;42.42
63306;BME280;50735;52.060;1.248;2023-07-08T07:23:39;101173.09;;;21.77;42.13
63306;BME280;50735;52.060;1.248;2023-07-08T07:26:11;101180.28;;;21.64;41.74
63306;BME280;50735;52.060;1.248;2023-07-08T07:28:42;101182.67;;;21.55;41.77
63306;BME280;50735;52.060;1.248;2023-07-08T07:31:14;101183.98;;;21.84;41.80
63306;BME280;50735;52.060;1.248;2023-07-08T07:33:46;101186.89;;;21.79;41.59
63306;BME280;50735;52.060;1.248;2023-07-08T07:36:17;101185.30;;;22.36;40.95
63306;BME280;50735;52.060;1.248;2023-07-08T07:38:49;101190.26;;;22.18;40.73
63306;BME280;50735;52.060;1.248;2023-07-08T07:41:22;101191.16;;;22.23;40.66
63306;BME280;50735;52.060;1.248;2023-07-08T07:43:53;101195.28;;;22.38;40.51
63306;BME280;50735;52.060;1.248;2023-07-08T07:46:25;101198.70;;;22.50;40.31
63306;BME280;50735;52.060;1.248;2023-07-08T07:48:57;101214.84;;;22.44;39.68
63306;BME280;50735;52.060;1.248;2023-07-08T07:51:29;101218.19;;;21.78;40.15
63306;BME280;50735;52.060;1.248;2023-07-08T07:54:00;101213.24;;;21.65;40.77
63306;BME280;50735;52.060;1.248;2023-07-08T07:56:32;101228.80;;;22.00;40.63
63306;BME280;50735;52.060;1.248;2023-07-08T07:59:04;101223.13;;;22.13;40.10
63306;BME280;50735;52.060;1.248;2023-07-08T08:01:35;101226.20;;;21.91;40.40
63306;BME280;50735;52.060;1.248;2023-07-08T08:04:10;101229.14;;;22.10;39.85
63306;BME280;50735;52.060;1.248;2023-07-08T08:06:42;101221.78;;;22.20;40.04
63306;BME280;50735;52.060;1.248;2023-07-08T08:09:14;101224.78;;;22.41;40.05
63306;BME280;50735;52.060;1.248;2023-07-08T08:11:45;101226.44;;;22.71;39.55
63306;BME280;50735;52.060;1.248;2023-07-08T08:14:17;101227.90;;;22.65;39.53
63306;BME280;50735;52.060;1.248;2023-07-08T08:16:50;101234.66;;;22.84;39.42
63306;BME280;50735;52.060;1.248;2023-07-08T08:19:22;101243.98;;;23.09;38.90
63306;BME280;50735;52.060;1.248;2023-07-08T08:21:54;101243.98;;;23.07;38.54
63306;BME280;50735;52.060;1.248;2023-07-08T08:24:26;101245.86;;;23.13;38.01
63306;BME280;50735;52.060;1.248;2023-07-08T08:26:59;101243.31;;;23.77;37.00
63306;BME280;50735;52.060;1.248;2023-07-08T08:29:31;101236.85;;;24.03;36.74
63306;BME280;50735;52.060;1.248;2023-07-08T08:32:03;101236.76;;;24.81;36.46
63306;BME280;50735;52.060;1.248;2023-07-08T08:34:35;101237.88;;;24.44;36.17
63306;BME280;50735;52.060;1.248;2023-07-08T08:37:08;101233.01;;;24.96;35.79
63306;BME280;50735;52.060;1.248;2023-07-08T08:39:40;101230.12;;;25.17;35.95
63306;BME280;50735;52.060;1.248;2023-07-08T08:42:18;101223.77;;;25.64;35.25
63306;BME280;50735;52.060;1.248;2023-07-08T08:44:52;101226.63;;;25.66;35.05
63306;BME280;50735;52.060;1.248;2023-07-08T08:47:33;101230.56;;;25.82;34.60
63306;BME280;50735;52.060;1.248;2023-07-08T08:50:20;101229.88;;;25.77;34.04
63306;BME280;50735;52.060;1.248;2023-07-08T08:52:58;101229.49;;;26.05;33.90
63306;BME280;50735;52.060;1.248;2023-07-08T08:55:31;101229.09;;;26.12;33.60
63306;BME280;50735;52.060;1.248;2023-07-08T08:58:13;101232.99;;;26.85;33.42
63306;BME280;50735;52.060;1.248;2023-07-08T09:00:54;101233.81;;;26.94;32.69
63306;BME280;50735;52.060;1.248;2023-07-08T09:03:35;101232.15;;;27.48;33.08
63306;BME280;50735;52.060;1.248;2023-07-08T09:06:11;101231.64;;;27.72;32.42
63306;BME280;50735;52.060;1.248;2023-07-08T09:08:44;101233.60;;;27.99;32.57
63306;BME280;50735;52.060;1.248;2023-07-08T09:11:25;101222.80;;;27.91;31.90
63306;BME280;50735;52.060;1.248;2023-07-08T09:13:59;101225.54;;;28.49;31.82
63306;BME280;50735;52.060;1.248;2023-07-08T09:16:39;101228.51;;;28.45;31.76
63306;BME280;50735;52.060;1.248;2023-07-08T09:19:21;101228.74;;;28.98;31.76
63306;BME280;50735;52.060;1.248;2023-07-08T09:21:59;101231.78;;;28.92;31.27
63306;BME280;50735;52.060;1.248;2023-07-08T09:24:36;101237.87;;;28.77;31.57
63306;BME280;50735;52.060;1.248;2023-07-08T09:27:11;101238.43;;;28.78;31.53
63306;BME280;50735;52.060;1.248;2023-07-08T09:29:43;101237.45;;;28.94;30.81
63306;BME280;50735;52.060;1.248;2023-07-08T09:32:17;101240.72;;;29.02;31.73
63306;BME280;50735;52.060;1.248;2023-07-08T09:34:51;101241.54;;;29.66;31.22
63306;BME280;50735;52.060;1.248;2023-07-08T09:37:26;101236.68;;;29.50;30.24
63306;BME280;50735;52.060;1.248;2023-07-08T09:40:00;101234.77;;;29.41;29.68
63306;BME280;50735;52.060;1.248;2023-07-08T09:42:35;101239.14;;;29.65;30.15
63306;BME280;50735;52.060;1.248;2023-07-08T09:45:13;101242.81;;;29.40;30.29
63306;BME280;50735;52.060;1.248;2023-07-08T09:47:46;101244.15;;;29.80;30.16
63306;BME280;50735;52.060;1.248;2023-07-08T09:50:21;101242.96;;;29.99;29.95
63306;BME280;50735;52.060;1.248;2023-07-08T09:52:55;101239.23;;;30.08;29.75
63306;BME280;50735;52.060;1.248;2023-07-08T09:55:28;101239.68;;;30.69;29.37
63306;BME280;50735;52.060;1.248;2023-07-08T09:57:59;101243.46;;;30.51;28.57
63306;BME280;50735;52.060;1.248;2023-07-08T10:00:33;101245.28;;;30.47;28.27
63306;BME280;50735;52.060;1.248;2023-07-08T10:03:15;101245.33;;;30.23;27.82
63306;BME280;50735;52.060;1.248;2023-07-08T10:05:49;101243.88;;;30.41;28.04
63306;BME280;50735;52.060;1.248;2023-07-08T10:08:24;101241.16;;;30.88;26.87
63306;BME280;50735;52.060;1.248;2023-07-08T10:11:00;101243.40;;;31.19;27.09
63306;BME280;50735;52.060;1.248;2023-07-08T10:13:38;101245.89;;;31.04;26.88
63306;BME280;50735;52.060;1.248;2023-07-08T10:16:15;101250.58;;;31.46;26.89
63306;BME280;50735;52.060;1.248;2023-07-08T10:18:48;101254.76;;;31.80;26.50
63306;BME280;50735;52.060;1.248;2023-07-08T10:21:28;101252.14;;;31.80;25.57
63306;BME280;50735;52.060;1.248;2023-07-08T10:24:18;101252.53;;;31.32;26.18
63306;BME280;50735;52.060;1.248;2023-07-08T10:26:58;101254.00;;;31.04;26.52
63306;BME280;50735;52.060;1.248;2023-07-08T10:29:36;101264.18;;;30.64;26.27
63306;BME280;50735;52.060;1.248;2023-07-08T10:32:18;101262.38;;;30.66;26.72
63306;BME280;50735;52.060;1.248;2023-07-08T10:34:59;101269.88;;;30.19;27.21
63306;BME280;50735;52.060;1.248;2023-07-08T10:37:37;101270.92;;;30.34;27.38
63306;BME280;50735;52.060;1.248;2023-07-08T10:40:22;101272.77;;;30.26;27.67
63306;BME280;50735;52.060;1.248;2023-07-08T10:43:10;101275.81;;;30.73;28.58
63306;BME280;50735;52.060;1.248;2023-07-08T10:45:52;101281.86;;;30.71;28.80
63306;BME280;50735;52.060;1.248;2023-07-08T10:48:41;101276.68;;;31.52;28.37
63306;BME280;50735;52.060;1.248;2023-07-08T10:51:22;101269.35;;;31.45;28.36
63306;BME280;50735;52.060;1.248;2023-07-08T10:54:08;101267.97;;;31.62;28.16
63306;BME280;50735;52.060;1.248;2023-07-08T10:56:50;101269.36;;;31.85;27.38
63306;BME280;50735;52.060;1.248;2023-07-08T10:59:35;101268.14;;;31.88;27.12
63306;BME280;50735;52.060;1.248;2023-07-08T11:04:39;101267.43;;;32.75;26.49
63306;BME280;50735;52.060;1.248;2023-07-08T11:07:18;101271.90;;;32.70;26.48
63306;BME280;50735;52.060;1.248;2023-07-08T11:09:56;101273.24;;;32.96;26.43
63306;BME280;50735;52.060;1.248;2023-07-08T11:12:33;101275.38;;;32.73;26.58
63306;BME280;50735;52.060;1.248;2023-07-08T11:15:14;101275.88;;;32.21;26.98
63306;BME280;50735;52.060;1.248;2023-07-08T11:17:51;101270.19;;;32.49;27.33
63306;BME280;50735;52.060;1.248;2023-07-08T11:20:28;101264.42;;;32.07;27.65
63306;BME280;50735;52.060;1.248;2023-07-08T11:23:08;101261.59;;;32.04;27.43
63306;BME280;50735;52.060;1.248;2023-07-08T11:25:45;101264.88;;;32.36;27.64
63306;BME280;50735;52.060;1.248;2023-07-08T11:28:19;101264.86;;;32.91;27.81
63306;BME280;50735;52.060;1.248;2023-07-08T11:30:57;101264.31;;;32.81;27.18
63306;BME280;50735;52.060;1.248;2023-07-08T11:33:32;101267.96;;;32.58;27.20
63306;BME280;50735;52.060;1.248;2023-07-08T11:36:05;101271.55;;;32.49;27.46
63306;BME280;50735;52.060;1.248;2023-07-08T11:38:47;101267.66;;;32.00;27.81
63306;BME280;50735;52.060;1.248;2023-07-08T11:41:21;101266.35;;;32.16;28.00
63306;BME280;50735;52.060;1.248;2023-07-08T11:43:57;101261.55;;;32.63;27.48
63306;BME280;50735;52.060;1.248;2023-07-08T11:46:32;101262.33;;;32.35;27.92
63306;BME280;50735;52.060;1.248;2023-07-08T11:49:09;101263.29;;;32.15;28.03
63306;BME280;50735;52.060;1.248;2023-07-08T11:51:44;101261.91;;;32.29;27.82
63306;BME280;50735;52.060;1.248;2023-07-08T11:54:20;101258.42;;;31.95;28.69
63306;BME280;50735;52.060;1.248;2023-07-08T11:57:01;101262.63;;;32.00;28.13
63306;BME280;50735;52.060;1.248;2023-07-08T11:59:38;101262.06;;;32.14;28.33
63306;BME280;50735;52.060;1.248;2023-07-08T12:02:13;101267.38;;;32.12;28.54
63306;BME280;50735;52.060;1.248;2023-07-08T12:04:56;101261.85;;;31.94;28.69
63306;BME280;50735;52.060;1.248;2023-07-08T12:07:31;101257.83;;;31.67;28.77
63306;BME280;50735;52.060;1.248;2023-07-08T12:10:06;101260.47;;;31.55;30.43
63306;BME280;50735;52.060;1.248;2023-07-08T12:12:43;101261.66;;;31.20;29.75
63306;BME280;50735;52.060;1.248;2023-07-08T12:15:21;101260.08;;;30.94;30.01
63306;BME280;50735;52.060;1.248;2023-07-08T12:17:56;101261.88;;;30.99;30.53
63306;BME280;50735;52.060;1.248;2023-07-08T12:20:32;101263.75;;;31.11;30.57
63306;BME280;50735;52.060;1.248;2023-07-08T12:23:09;101264.65;;;30.83;30.39
63306;BME280;50735;52.060;1.248;2023-07-08T12:25:43;101270.82;;;30.81;30.36
63306;BME280;50735;52.060;1.248;2023-07-08T12:28:15;101268.97;;;30.98;30.45
63306;BME280;50735;52.060;1.248;2023-07-08T12:30:48;101272.69;;;30.73;30.46
63306;BME280;50735;52.060;1.248;2023-07-08T12:33:26;101269.54;;;30.80;30.86
63306;BME280;50735;52.060;1.248;2023-07-08T12:36:00;101270.08;;;30.99;31.09
63306;BME280;50735;52.060;1.248;2023-07-08T12:38:37;101267.68;;;30.78;31.00
63306;BME280;50735;52.060;1.248;2023-07-08T12:41:12;101263.31;;;31.41;31.08
63306;BME280;50735;52.060;1.248;2023-07-08T12:43:46;101263.15;;;31.05;30.71
63306;BME280;50735;52.060;1.248;2023-07-08T12:46:20;101263.71;;;31.52;30.71
63306;BME280;50735;52.060;1.248;2023-07-08T12:48:52;101264.40;;;31.53;30.53
63306;BME280;50735;52.060;1.248;2023-07-08T12:51:27;101265.43;;;31.31;30.17
63306;BME280;50735;52.060;1.248;2023-07-08T12:53:59;101268.67;;;31.54;30.65
63306;BME280;50735;52.060;1.248;2023-07-08T12:56:31;101270.55;;;31.15;30.60
63306;BME280;50735;52.060;1.248;2023-07-08T12:59:04;101272.39;;;31.35;30.72
63306;BME280;50735;52.060;1.248;2023-07-08T13:01:37;101273.96;;;31.51;30.80
63306;BME280;50735;52.060;1.248;2023-07-08T13:04:10;101272.01;;;31.34;30.10
63306;BME280;50735;52.060;1.248;2023-07-08T13:06:45;101273.98;;;31.04;30.55
63306;BME280;50735;52.060;1.248;2023-07-08T13:09:28;101266.02;;;31.08;31.02
63306;BME280;50735;52.060;1.248;2023-07-08T13:12:12;101265.56;;;31.28;30.71
63306;BME280;50735;52.060;1.248;2023-07-08T13:14:45;101257.71;;;31.41;30.88
63306;BME280;50735;52.060;1.248;2023-07-08T13:17:17;101259.76;;;31.36;30.02
63306;BME280;50735;52.060;1.248;2023-07-08T13:19:49;101264.22;;;31.09;30.01
63306;BME280;50735;52.060;1.248;2023-07-08T13:22:22;101273.76;;;31.22;31.28
63306;BME280;50735;52.060;1.248;2023-07-08T13:25:03;101276.07;;;31.08;30.40
63306;BME280;50735;52.060;1.248;2023-07-08T13:27:42;101281.81;;;30.87;30.88